CheckWX is a tool to help pilots better visualize weather data.  It is not intended as a substitute for an official pre-flight weather briefing.

17:09:20 UTC

KMSP METAR
Minneapolis-St Paul International / Wold-Chamberlain Airport
Minneapolis, Minnesota, USA
Current

1 hour ago

KMSP 211553Z 00000KT 10SM BKN250 24/14 A3009 RMK AO2 SLP185 T02440139
Observed
Jul-21 @ 15:53 UTC
Visibility
10 SM
Flight Rules
VFR
Cloud Levels
  • Broken at 25,000' AGL
Temperature
24°C / 75°F
Dewpoint
14°C / 57°F
Humidity
54%
Altimeter
30.09" Hg
Pressure
1018.92 hPa
Previous

2 hours ago

KMSP 211453Z 36004KT 10SM BKN250 23/16 A3007 RMK AO2 SLP180 T02330156 51011
Observed
Jul-21 @ 14:53 UTC
Wind
  • 360° at 4 KTS
Visibility
10 SM
Flight Rules
VFR
Cloud Levels
  • Broken at 25,000' AGL
Temperature
23°C / 73°F
Dewpoint
16°C / 61°F
Humidity
65%
Altimeter
30.07" Hg
Pressure
1018.32 hPa
Previous

3 hours ago

KMSP 211353Z 00000KT 10SM SCT250 22/16 A3007 RMK AO2 SLP180 T02170156
Observed
Jul-21 @ 13:53 UTC
Visibility
10 SM
Flight Rules
VFR
Cloud Levels
  • Scattered at 25,000' AGL
Temperature
22°C / 72°F
Dewpoint
16°C / 61°F
Humidity
69%
Altimeter
30.07" Hg
Pressure
1018.32 hPa